sensor_id;sensor_type;location;lat;lon;timestamp;pressure;altitude;pressure_sealevel;temperature;humidity
42003;BME280;27693;50.506;30.832;2023-03-22T00:00:00;99579.55;;;9.51;79.11
42003;BME280;27693;50.506;30.832;2023-03-22T00:01:07;99572.74;;;9.49;78.90
42003;BME280;27693;50.506;30.832;2023-03-22T00:02:10;99571.05;;;9.48;79.18
42003;BME280;27693;50.506;30.832;2023-03-22T00:03:13;99573.45;;;9.52;78.86
42003;BME280;27693;50.506;30.832;2023-03-22T00:04:16;99576.25;;;9.48;78.76
42003;BME280;27693;50.506;30.832;2023-03-22T00:05:19;99574.83;;;9.40;78.95
42003;BME280;27693;50.506;30.832;2023-03-22T00:06:22;99584.65;;;9.34;79.16
42003;BME280;27693;50.506;30.832;2023-03-22T00:07:24;99572.77;;;9.28;79.55
42003;BME280;27693;50.506;30.832;2023-03-22T00:08:28;99574.90;;;9.39;79.60
42003;BME280;27693;50.506;30.832;2023-03-22T00:09:30;99576.40;;;9.45;79.17
42003;BME280;27693;50.506;30.832;2023-03-22T00:10:36;99575.30;;;9.50;79.14
42003;BME280;27693;50.506;30.832;2023-03-22T00:11:39;99578.10;;;9.65;79.02
42003;BME280;27693;50.506;30.832;2023-03-22T00:12:42;99576.64;;;9.59;78.40
42003;BME280;27693;50.506;30.832;2023-03-22T00:13:45;99582.23;;;9.50;78.54
42003;BME280;27693;50.506;30.832;2023-03-22T00:14:48;99582.86;;;9.55;78.78
42003;BME280;27693;50.506;30.832;2023-03-22T00:15:50;99582.03;;;9.54;78.66
42003;BME280;27693;50.506;30.832;2023-03-22T00:16:53;99593.12;;;9.58;78.47
42003;BME280;27693;50.506;30.832;2023-03-22T00:17:55;99589.90;;;9.53;78.51
42003;BME280;27693;50.506;30.832;2023-03-22T00:19:00;99578.92;;;9.46;78.60
42003;BME280;27693;50.506;30.832;2023-03-22T00:20:05;99585.36;;;9.37;78.93
42003;BME280;27693;50.506;30.832;2023-03-22T00:21:13;99590.30;;;9.23;79.70
42003;BME280;27693;50.506;30.832;2023-03-22T00:22:16;99583.03;;;9.31;79.80
42003;BME280;27693;50.506;30.832;2023-03-22T00:23:19;99583.94;;;9.30;79.76
42003;BME280;27693;50.506;30.832;2023-03-22T00:24:22;99585.62;;;9.31;79.69
42003;BME280;27693;50.506;30.832;2023-03-22T00:25:25;99587.17;;;9.35;79.60
42003;BME280;27693;50.506;30.832;2023-03-22T00:26:28;99584.05;;;9.27;79.62
42003;BME280;27693;50.506;30.832;2023-03-22T00:27:31;99586.98;;;9.19;79.94
42003;BME280;27693;50.506;30.832;2023-03-22T00:28:34;99586.01;;;9.22;80.20
42003;BME280;27693;50.506;30.832;2023-03-22T00:29:37;99579.13;;;9.21;80.17
42003;BME280;27693;50.506;30.832;2023-03-22T00:30:39;99580.44;;;9.31;80.06
42003;BME280;27693;50.506;30.832;2023-03-22T00:31:42;99581.61;;;9.24;80.00
42003;BME280;27693;50.506;30.832;2023-03-22T00:32:45;99586.19;;;9.38;80.04
42003;BME280;27693;50.506;30.832;2023-03-22T00:33:48;99583.92;;;9.51;79.96
42003;BME280;27693;50.506;30.832;2023-03-22T00:34:50;99584.44;;;9.59;79.26
42003;BME280;27693;50.506;30.832;2023-03-22T00:35:56;99589.19;;;9.49;78.85
42003;BME280;27693;50.506;30.832;2023-03-22T00:36:58;99585.48;;;9.34;79.23
42003;BME280;27693;50.506;30.832;2023-03-22T00:38:01;99582.39;;;9.26;79.59
42003;BME280;27693;50.506;30.832;2023-03-22T00:39:05;99586.98;;;9.19;80.01
42003;BME280;27693;50.506;30.832;2023-03-22T00:40:11;99584.01;;;9.29;80.12
42003;BME280;27693;50.506;30.832;2023-03-22T00:41:18;99584.05;;;9.27;80.05
42003;BME280;27693;50.506;30.832;2023-03-22T00:42:21;99586.15;;;9.39;79.83
42003;BME280;27693;50.506;30.832;2023-03-22T00:43:24;99588.33;;;9.49;79.46
42003;BME280;27693;50.506;30.832;2023-03-22T00:44:26;99579.90;;;9.43;79.27
42003;BME280;27693;50.506;30.832;2023-03-22T00:45:29;99578.62;;;9.33;79.49
42003;BME280;27693;50.506;30.832;2023-03-22T00:46:32;99584.20;;;9.24;79.96
42003;BME280;27693;50.506;30.832;2023-03-22T00:47:36;99585.55;;;9.12;80.45
42003;BME280;27693;50.506;30.832;2023-03-22T00:48:39;99584.39;;;9.19;80.61
42003;BME280;27693;50.506;30.832;2023-03-22T00:49:42;99580.17;;;9.37;80.35
42003;BME280;27693;50.506;30.832;2023-03-22T00:50:45;99588.59;;;9.42;79.93
42003;BME280;27693;50.506;30.832;2023-03-22T00:51:47;99581.32;;;9.51;79.80
42003;BME280;27693;50.506;30.832;2023-03-22T00:52:50;99580.78;;;9.63;79.63
42003;BME280;27693;50.506;30.832;2023-03-22T00:53:53;99587.22;;;9.54;79.26
42003;BME280;27693;50.506;30.832;2023-03-22T00:54:57;99579.63;;;9.50;79.27
42003;BME280;27693;50.506;30.832;2023-03-22T00:56:00;99586.52;;;9.51;79.29
42003;BME280;27693;50.506;30.832;2023-03-22T00:57:05;99584.03;;;9.48;79.22
42003;BME280;27693;50.506;30.832;2023-03-22T00:58:08;99589.84;;;9.34;79.77
42003;BME280;27693;50.506;30.832;2023-03-22T00:59:11;99589.13;;;9.30;79.94
42003;BME280;27693;50.506;30.832;2023-03-22T01:00:16;99585.62;;;9.31;80.06
42003;BME280;27693;50.506;30.832;2023-03-22T01:01:20;99583.59;;;9.38;80.09
42003;BME280;27693;50.506;30.832;2023-03-22T01:02:23;99587.17;;;9.35;79.95
42003;BME280;27693;50.506;30.832;2023-03-22T01:03:28;99590.67;;;9.34;80.15
42003;BME280;27693;50.506;30.832;2023-03-22T01:04:32;99588.48;;;9.46;80.29
42003;BME280;27693;50.506;30.832;2023-03-22T01:05:38;99593.25;;;9.55;79.90
42003;BME280;27693;50.506;30.832;2023-03-22T01:06:41;99587.17;;;9.35;79.75
42003;BME280;27693;50.506;30.832;2023-03-22T01:07:43;99594.58;;;9.24;80.23
42003;BME280;27693;50.506;30.832;2023-03-22T01:08:46;99590.63;;;9.15;80.68
42003;BME280;27693;50.506;30.832;2023-03-22T01:09:51;99589.91;;;9.11;80.91
42003;BME280;27693;50.506;30.832;2023-03-22T01:10:55;99585.09;;;9.02;81.52
42003;BME280;27693;50.506;30.832;2023-03-22T01:11:57;99593.93;;;8.98;81.87
42003;BME280;27693;50.506;30.832;2023-03-22T01:13:00;99590.17;;;9.05;81.75
42003;BME280;27693;50.506;30.832;2023-03-22T01:14:03;99585.37;;;9.17;81.67
42003;BME280;27693;50.506;30.832;2023-03-22T01:15:06;99583.82;;;9.13;81.45
42003;BME280;27693;50.506;30.832;2023-03-22T01:16:09;99584.39;;;9.19;81.47
42003;BME280;27693;50.506;30.832;2023-03-22T01:17:12;99584.72;;;9.11;81.19
42003;BME280;27693;50.506;30.832;2023-03-22T01:18:15;99588.86;;;9.16;81.28
42003;BME280;27693;50.506;30.832;2023-03-22T01:19:18;99587.96;;;9.17;81.32
42003;BME280;27693;50.506;30.832;2023-03-22T01:20:21;99590.67;;;9.14;81.33
42003;BME280;27693;50.506;30.832;2023-03-22T01:21:24;99587.62;;;9.04;81.43
42003;BME280;27693;50.506;30.832;2023-03-22T01:22:27;99595.73;;;8.96;81.84
42003;BME280;27693;50.506;30.832;2023-03-22T01:23:30;99595.98;;;8.90;82.11
42003;BME280;27693;50.506;30.832;2023-03-22T01:24:33;99594.30;;;8.89;82.22
42003;BME280;27693;50.506;30.832;2023-03-22T01:25:36;99595.27;;;8.86;82.35
42003;BME280;27693;50.506;30.832;2023-03-22T01:26:39;99594.66;;;8.79;82.66
42003;BME280;27693;50.506;30.832;2023-03-22T01:27:42;99591.41;;;8.74;82.98
42003;BME280;27693;50.506;30.832;2023-03-22T01:28:44;99588.75;;;8.76;83.17
42003;BME280;27693;50.506;30.832;2023-03-22T01:29:48;99596.60;;;8.74;83.28
42003;BME280;27693;50.506;30.832;2023-03-22T01:30:52;99591.09;;;8.82;83.46
42003;BME280;27693;50.506;30.832;2023-03-22T01:31:54;99601.17;;;8.90;83.15
42003;BME280;27693;50.506;30.832;2023-03-22T01:32:56;99588.34;;;9.07;83.23
42003;BME280;27693;50.506;30.832;2023-03-22T01:33:59;99587.31;;;9.11;81.88
42003;BME280;27693;50.506;30.832;2023-03-22T01:35:04;99587.31;;;9.11;81.88
42003;BME280;27693;50.506;30.832;2023-03-22T01:36:09;99595.22;;;9.08;81.97
42003;BME280;27693;50.506;30.832;2023-03-22T01:37:12;99595.73;;;8.96;81.96
42003;BME280;27693;50.506;30.832;2023-03-22T01:38:16;99596.52;;;8.98;82.22
42003;BME280;27693;50.506;30.832;2023-03-22T01:39:27;99598.22;;;8.99;82.19
42003;BME280;27693;50.506;30.832;2023-03-22T01:40:33;99601.84;;;9.16;82.02
42003;BME280;27693;50.506;30.832;2023-03-22T01:41:36;99601.50;;;9.03;81.90
42003;BME280;27693;50.506;30.832;2023-03-22T01:42:41;99609.75;;;8.92;82.27
42003;BME280;27693;50.506;30.832;2023-03-22T01:46:22;99608.59;;;8.99;82.91
42003;BME280;27693;50.506;30.832;2023-03-22T01:47:26;99612.84;;;9.00;82.41
42003;BME280;27693;50.506;30.832;2023-03-22T01:48:37;99607.88;;;8.73;82.88
42003;BME280;27693;50.506;30.832;2023-03-22T01:49:42;99622.30;;;8.58;83.74
42003;BME280;27693;50.506;30.832;2023-03-22T01:50:52;99616.70;;;8.47;84.49
42003;BME280;27693;50.506;30.832;2023-03-22T01:51:56;99614.84;;;8.51;84.76
42003;BME280;27693;50.506;30.832;2023-03-22T01:53:08;99615.16;;;8.41;84.83
42003;BME280;27693;50.506;30.832;2023-03-22T01:54:16;99610.07;;;8.38;85.15
42003;BME280;27693;50.506;30.832;2023-03-22T01:55:21;99629.35;;;8.31;85.54
42003;BME280;27693;50.506;30.832;2023-03-22T01:56:30;99623.23;;;8.34;85.70
42003;BME280;27693;50.506;30.832;2023-03-22T01:57:34;99622.50;;;8.30;85.74
42003;BME280;27693;50.506;30.832;2023-03-22T01:58:42;99614.41;;;8.15;86.35
42003;BME280;27693;50.506;30.832;2023-03-22T01:59:45;99619.85;;;8.08;86.80
42003;BME280;27693;50.506;30.832;2023-03-22T02:00:53;99619.81;;;8.09;87.06
42003;BME280;27693;50.506;30.832;2023-03-22T02:02:13;99611.02;;;8.13;87.17
42003;BME280;27693;50.506;30.832;2023-03-22T02:03:25;99616.83;;;8.20;87.00
42003;BME280;27693;50.506;30.832;2023-03-22T02:04:27;99611.25;;;8.07;87.20
42003;BME280;27693;50.506;30.832;2023-03-22T02:05:34;99617.95;;;8.13;87.37
42003;BME280;27693;50.506;30.832;2023-03-22T02:06:38;99620.35;;;8.18;87.22
42003;BME280;27693;50.506;30.832;2023-03-22T02:07:43;99618.32;;;8.26;87.05
42003;BME280;27693;50.506;30.832;2023-03-22T02:08:47;99625.03;;;8.31;86.77
42003;BME280;27693;50.506;30.832;2023-03-22T02:09:53;99618.48;;;8.21;86.77
42003;BME280;27693;50.506;30.832;2023-03-22T02:10:56;99627.06;;;8.23;86.88
42003;BME280;27693;50.506;30.832;2023-03-22T02:16:20;99625.78;;;7.88;88.63
42003;BME280;27693;50.506;30.832;2023-03-22T02:23:19;99634.16;;;7.71;89.20
42003;BME280;27693;50.506;30.832;2023-03-22T02:26:06;99632.68;;;7.63;89.79
42003;BME280;27693;50.506;30.832;2023-03-22T02:27:33;99630.09;;;7.63;89.86
42003;BME280;27693;50.506;30.832;2023-03-22T02:29:02;99628.77;;;7.51;90.19
42003;BME280;27693;50.506;30.832;2023-03-22T02:31:54;99634.59;;;7.58;90.38
42003;BME280;27693;50.506;30.832;2023-03-22T02:33:02;99634.47;;;7.61;90.36
42003;BME280;27693;50.506;30.832;2023-03-22T02:39:36;99629.94;;;7.68;89.77
42003;BME280;27693;50.506;30.832;2023-03-22T02:47:26;99632.55;;;7.66;90.43
42003;BME280;27693;50.506;30.832;2023-03-22T02:48:49;99633.85;;;7.55;90.47
42003;BME280;27693;50.506;30.832;2023-03-22T02:50:13;99640.60;;;7.59;90.43
42003;BME280;27693;50.506;30.832;2023-03-22T02:51:20;99631.59;;;7.69;90.41
42003;BME280;27693;50.506;30.832;2023-03-22T02:53:45;99640.69;;;7.56;90.04
42003;BME280;27693;50.506;30.832;2023-03-22T02:54:59;99643.99;;;7.61;90.23
42003;BME280;27693;50.506;30.832;2023-03-22T02:56:02;99645.19;;;7.76;90.09
42003;BME280;27693;50.506;30.832;2023-03-22T02:57:12;99647.13;;;7.69;89.86
42003;BME280;27693;50.506;30.832;2023-03-22T02:58:36;99649.05;;;7.64;89.99
42003;BME280;27693;50.506;30.832;2023-03-22T02:59:40;99644.39;;;7.48;90.42
42003;BME280;27693;50.506;30.832;2023-03-22T03:00:46;99653.67;;;7.29;91.33
42003;BME280;27693;50.506;30.832;2023-03-22T03:01:56;99642.34;;;7.33;91.54
42003;BME280;27693;50.506;30.832;2023-03-22T03:03:04;99647.91;;;7.47;91.55
42003;BME280;27693;50.506;30.832;2023-03-22T03:04:53;99651.70;;;7.62;91.31
42003;BME280;27693;50.506;30.832;2023-03-22T03:05:19;99649.53;;;7.75;90.89
42003;BME280;27693;50.506;30.832;2023-03-22T03:06:26;99646.08;;;7.75;90.31
42003;BME280;27693;50.506;30.832;2023-03-22T03:07:30;99652.22;;;7.72;90.15
42003;BME280;27693;50.506;30.832;2023-03-22T03:08:34;99657.11;;;7.80;90.04
42003;BME280;27693;50.506;30.832;2023-03-22T03:09:40;99652.86;;;7.79;89.76
42003;BME280;27693;50.506;30.832;2023-03-22T03:10:46;99659.31;;;7.67;90.08
42003;BME280;27693;50.506;30.832;2023-03-22T03:11:51;99660.14;;;7.67;90.28
42003;BME280;27693;50.506;30.832;2023-03-22T03:12:55;99659.62;;;7.58;90.47
42003;BME280;27693;50.506;30.832;2023-03-22T03:13:59;99658.34;;;7.44;90.99
42003;BME280;27693;50.506;30.832;2023-03-22T03:15:04;99664.54;;;7.40;91.35
42003;BME280;27693;50.506;30.832;2023-03-22T03:16:09;99663.52;;;7.44;91.77
42003;BME280;27693;50.506;30.832;2023-03-22T03:22:35;99668.46;;;7.25;92.35
42003;BME280;27693;50.506;30.832;2023-03-22T03:27:00;99673.48;;;7.30;92.91
42003;BME280;27693;50.506;30.832;2023-03-22T03:30:27;99682.86;;;7.34;93.18
42003;BME280;27693;50.506;30.832;2023-03-22T03:31:45;99678.25;;;7.42;93.09
42003;BME280;27693;50.506;30.832;2023-03-22T03:32:58;99680.06;;;7.40;93.07
42003;BME280;27693;50.506;30.832;2023-03-22T03:34:18;99681.77;;;7.41;93.13
42003;BME280;27693;50.506;30.832;2023-03-22T03:35:27;99678.22;;;7.44;93.18
42003;BME280;27693;50.506;30.832;2023-03-22T03:36:33;99673.67;;;7.50;92.92
42003;BME280;27693;50.506;30.832;2023-03-22T03:37:57;99683.59;;;7.63;92.65
42003;BME280;27693;50.506;30.832;2023-03-22T03:38:53;99674.72;;;7.70;92.28
42003;BME280;27693;50.506;30.832;2023-03-22T03:40:12;99679.81;;;7.73;91.84
42003;BME280;27693;50.506;30.832;2023-03-22T03:41:19;99681.53;;;7.73;91.81
42003;BME280;27693;50.506;30.832;2023-03-22T03:42:25;99688.16;;;7.81;91.43
42003;BME280;27693;50.506;30.832;2023-03-22T03:43:31;99682.64;;;7.91;91.02
42003;BME280;27693;50.506;30.832;2023-03-22T03:44:35;99694.30;;;7.79;90.90
42003;BME280;27693;50.506;30.832;2023-03-22T03:45:39;99680.42;;;7.80;90.89
42003;BME280;27693;50.506;30.832;2023-03-22T03:46:43;99685.67;;;7.78;90.93
42003;BME280;27693;50.506;30.832;2023-03-22T03:47:48;99687.14;;;7.86;90.90
42003;BME280;27693;50.506;30.832;2023-03-22T03:48:56;99686.77;;;7.96;90.77
42003;BME280;27693;50.506;30.832;2023-03-22T03:49:59;99683.13;;;8.02;90.43
42003;BME280;27693;50.506;30.832;2023-03-22T03:51:02;99684.02;;;8.01;90.24
42003;BME280;27693;50.506;30.832;2023-03-22T03:52:05;99682.00;;;8.09;90.12
42003;BME280;27693;50.506;30.832;2023-03-22T03:53:08;99684.30;;;8.17;90.03
42003;BME280;27693;50.506;30.832;2023-03-22T03:54:11;99690.89;;;8.02;89.43
42003;BME280;27693;50.506;30.832;2023-03-22T03:55:14;99685.58;;;7.81;89.98
42003;BME280;27693;50.506;30.832;2023-03-22T03:56:17;99685.23;;;7.91;90.39
42003;BME280;27693;50.506;30.832;2023-03-22T03:57:20;99685.48;;;8.08;90.59
42003;BME280;27693;50.506;30.832;2023-03-22T03:58:23;99685.42;;;8.10;89.86
42003;BME280;27693;50.506;30.832;2023-03-22T03:59:26;99685.14;;;8.18;89.80
42003;BME280;27693;50.506;30.832;2023-03-22T04:00:29;99687.41;;;8.27;89.55
42003;BME280;27693;50.506;30.832;2023-03-22T04:01:51;99687.50;;;8.24;89.00
42003;BME280;27693;50.506;30.832;2023-03-22T04:02:55;99688.80;;;8.36;88.99
42003;BME280;27693;50.506;30.832;2023-03-22T04:04:01;99687.17;;;8.33;88.58
42003;BME280;27693;50.506;30.832;2023-03-22T04:05:18;99686.61;;;8.25;88.58
42003;BME280;27693;50.506;30.832;2023-03-22T04:06:20;99687.06;;;8.12;88.90
42003;BME280;27693;50.506;30.832;2023-03-22T04:07:24;99690.09;;;8.24;89.30
42003;BME280;27693;50.506;30.832;2023-03-22T04:08:27;99683.02;;;8.29;88.86
42003;BME280;27693;50.506;30.832;2023-03-22T04:09:32;99688.20;;;8.29;88.75
42003;BME280;27693;50.506;30.832;2023-03-22T04:10:39;99685.64;;;8.27;88.55
42003;BME280;27693;50.506;30.832;2023-03-22T04:11:43;99689.89;;;8.30;88.42
42003;BME280;27693;50.506;30.832;2023-03-22T04:12:45;99694.22;;;8.29;88.44
42003;BME280;27693;50.506;30.832;2023-03-22T04:13:50;99690.09;;;8.24;88.55
42003;BME280;27693;50.506;30.832;2023-03-22T04:14:54;99682.89;;;8.32;88.79
42003;BME280;27693;50.506;30.832;2023-03-22T04:15:59;99688.77;;;8.37;88.65
42003;BME280;27693;50.506;30.832;2023-03-22T04:17:05;99685.25;;;8.38;88.29
42003;BME280;27693;50.506;30.832;2023-03-22T04:18:08;99693.02;;;8.38;88.27
42003;BME280;27693;50.506;30.832;2023-03-22T04:19:13;99685.67;;;8.51;88.35
42003;BME280;27693;50.506;30.832;2023-03-22T04:20:16;99698.06;;;8.67;88.32
42003;BME280;27693;50.506;30.832;2023-03-22T04:21:21;99700.59;;;8.68;87.55
42003;BME280;27693;50.506;30.832;2023-03-22T04:22:28;99696.13;;;8.72;87.07
42003;BME280;27693;50.506;30.832;2023-03-22T04:23:33;99690.11;;;8.71;86.66
42003;BME280;27693;50.506;30.832;2023-03-22T04:24:36;99696.37;;;8.66;86.62
42003;BME280;27693;50.506;30.832;2023-03-22T04:25:39;99696.44;;;8.64;86.77
42003;BME280;27693;50.506;30.832;2023-03-22T04:26:44;99688.89;;;8.58;86.69
42003;BME280;27693;50.506;30.832;2023-03-22T04:27:52;99695.15;;;8.52;86.74
42003;BME280;27693;50.506;30.832;2023-03-22T04:28:56;99696.22;;;8.46;87.18
42003;BME280;27693;50.506;30.832;2023-03-22T04:30:06;99690.20;;;8.44;87.31
42003;BME280;27693;50.506;30.832;2023-03-22T04:31:30;99697.98;;;8.44;87.42
42003;BME280;27693;50.506;30.832;2023-03-22T04:32:34;99701.83;;;8.34;87.52
42003;BME280;27693;50.506;30.832;2023-03-22T04:33:37;99697.20;;;8.19;88.06
42003;BME280;27693;50.506;30.832;2023-03-22T04:34:50;99700.02;;;8.12;88.48
42003;BME280;27693;50.506;30.832;2023-03-22T04:35:54;99698.61;;;8.04;88.90
42003;BME280;27693;50.506;30.832;2023-03-22T04:36:59;99699.34;;;8.07;89.16
42003;BME280;27693;50.506;30.832;2023-03-22T04:38:05;99700.00;;;7.89;89.39
42003;BME280;27693;50.506;30.832;2023-03-22T04:39:10;99686.34;;;7.83;89.91
42003;BME280;27693;50.506;30.832;2023-03-22T04:40:14;99686.34;;;7.83;90.26
42003;BME280;27693;50.506;30.832;2023-03-22T04:41:35;99700.52;;;7.98;90.12
42003;BME280;27693;50.506;30.832;2023-03-22T04:42:38;99696.81;;;8.06;89.84
42003;BME280;27693;50.506;30.832;2023-03-22T04:43:46;99702.25;;;7.98;89.64
42003;BME280;27693;50.506;30.832;2023-03-22T04:44:50;99702.22;;;7.99;89.62
42003;BME280;27693;50.506;30.832;2023-03-22T04:45:54;99704.40;;;8.10;89.80
42003;BME280;27693;50.506;30.832;2023-03-22T04:47:01;99708.59;;;8.14;89.43
42003;BME280;27693;50.506;30.832;2023-03-22T04:48:04;99710.22;;;8.17;89.02
42003;BME280;27693;50.506;30.832;2023-03-22T04:49:10;99713.13;;;8.08;88.76
42003;BME280;27693;50.506;30.832;2023-03-22T04:50:14;99713.41;;;8.00;88.99
42003;BME280;27693;50.506;30.832;2023-03-22T04:51:19;99712.83;;;7.92;89.31
42003;BME280;27693;50.506;30.832;2023-03-22T04:52:24;99717.05;;;7.94;89.67
42003;BME280;27693;50.506;30.832;2023-03-22T04:53:29;99718.69;;;7.97;89.74
42003;BME280;27693;50.506;30.832;2023-03-22T04:54:34;99718.37;;;8.06;89.82
42003;BME280;27693;50.506;30.832;2023-03-22T04:55:36;99721.64;;;8.11;89.44
42003;BME280;27693;50.506;30.832;2023-03-22T04:56:39;99720.88;;;8.09;89.33
42003;BME280;27693;50.506;30.832;2023-03-22T04:57:41;99722.60;;;8.09;89.23
42003;BME280;27693;50.506;30.832;2023-03-22T04:58:45;99714.89;;;8.07;89.27
42003;BME280;27693;50.506;30.832;2023-03-22T04:59:48;99719.75;;;8.17;89.18
42003;BME280;27693;50.506;30.832;2023-03-22T05:00:52;99715.75;;;8.31;89.35
42003;BME280;27693;50.506;30.832;2023-03-22T05:01:56;99718.42;;;8.54;89.17
42003;BME280;27693;50.506;30.832;2023-03-22T05:03:00;99722.38;;;8.64;88.22
42003;BME280;27693;50.506;30.832;2023-03-22T05:04:09;99728.42;;;8.39;87.36
42003;BME280;27693;50.506;30.832;2023-03-22T05:05:13;99727.33;;;8.46;87.37
42003;BME280;27693;50.506;30.832;2023-03-22T05:06:17;99727.09;;;8.53;87.51
42003;BME280;27693;50.506;30.832;2023-03-22T05:07:22;99741.98;;;8.71;87.55
42003;BME280;27693;50.506;30.832;2023-03-22T05:08:29;99737.00;;;8.65;86.53
42003;BME280;27693;50.506;30.832;2023-03-22T05:09:32;99729.69;;;8.53;86.68
42003;BME280;27693;50.506;30.832;2023-03-22T05:10:38;99733.02;;;8.56;86.48
42003;BME280;27693;50.506;30.832;2023-03-22T05:11:42;99739.23;;;8.52;86.45
42003;BME280;27693;50.506;30.832;2023-03-22T05:12:46;99738.10;;;8.59;86.24
42003;BME280;27693;50.506;30.832;2023-03-22T05:13:53;99734.08;;;8.74;86.34
42003;BME280;27693;50.506;30.832;2023-03-22T05:14:56;99737.05;;;8.87;85.86
42003;BME280;27693;50.506;30.832;2023-03-22T05:16:00;99735.36;;;8.86;85.11
42003;BME280;27693;50.506;30.832;2023-03-22T05:17:05;99739.89;;;9.03;84.74
42003;BME280;27693;50.506;30.832;2023-03-22T05:18:09;99739.89;;;9.03;84.74
42003;BME280;27693;50.506;30.832;2023-03-22T05:19:12;99744.84;;;9.09;84.44
42003;BME280;27693;50.506;30.832;2023-03-22T05:20:19;99744.42;;;8.98;83.88
42003;BME280;27693;50.506;30.832;2023-03-22T05:21:24;99740.62;;;8.85;84.16
42003;BME280;27693;50.506;30.832;2023-03-22T05:22:30;99746.97;;;8.76;84.49
42003;BME280;27693;50.506;30.832;2023-03-22T05:23:35;99738.95;;;8.82;84.80
42003;BME280;27693;50.506;30.832;2023-03-22T05:24:38;99743.73;;;8.93;84.73
42003;BME280;27693;50.506;30.832;2023-03-22T05:25:44;99748.16;;;8.91;84.36
42003;BME280;27693;50.506;30.832;2023-03-22T05:26:50;99741.52;;;8.84;84.58
42003;BME280;27693;50.506;30.832;2023-03-22T05:27:56;99743.45;;;8.78;84.73
42003;BME280;27693;50.506;30.832;2023-03-22T05:29:09;99745.31;;;8.75;84.82
42003;BME280;27693;50.506;30.832;2023-03-22T05:30:15;99744.77;;;8.89;84.94
42003;BME280;27693;50.506;30.832;2023-03-22T05:31:20;99743.85;;;8.68;85.06
42003;BME280;27693;50.506;30.832;2023-03-22T05:32:24;99744.19;;;8.58;85.66
42003;BME280;27693;50.506;30.832;2023-03-22T05:33:29;99749.53;;;8.54;85.96
42003;BME280;27693;50.506;30.832;2023-03-22T05:34:32;99746.14;;;8.52;86.19
42003;BME280;27693;50.506;30.832;2023-03-22T05:35:40;99747.74;;;8.56;86.30
42003;BME280;27693;50.506;30.832;2023-03-22T05:36:43;99745.02;;;8.59;86.19
42003;BME280;27693;50.506;30.832;2023-03-22T05:37:50;99750.91;;;8.64;85.94
42003;BME280;27693;50.506;30.832;2023-03-22T05:38:55;99743.66;;;8.72;85.89
42003;BME280;27693;50.506;30.832;2023-03-22T05:39:58;99753.43;;;8.66;85.47
42003;BME280;27693;50.506;30.832;2023-03-22T05:41:04;99748.06;;;8.46;86.15
42003;BME280;27693;50.506;30.832;2023-03-22T05:42:06;99751.80;;;8.63;86.46
42003;BME280;27693;50.506;30.832;2023-03-22T05:43:10;99753.86;;;8.77;85.98
42003;BME280;27693;50.506;30.832;2023-03-22T05:44:15;99741.98;;;8.71;85.54
42003;BME280;27693;50.506;30.832;2023-03-22T05:45:20;99755.63;;;8.76;85.47
42003;BME280;27693;50.506;30.832;2023-03-22T05:46:25;99743.13;;;8.64;85.32
42003;BME280;27693;50.506;30.832;2023-03-22T05:47:32;99757.31;;;8.77;85.47
42003;BME280;27693;50.506;30.832;2023-03-22T05:48:40;99753.59;;;8.85;85.25
42003;BME280;27693;50.506;30.832;2023-03-22T05:49:43;99752.31;;;8.95;84.90
42003;BME280;27693;50.506;30.832;2023-03-22T05:50:46;99747.55;;;9.06;84.68
42003;BME280;27693;50.506;30.832;2023-03-22T05:51:49;99759.02;;;9.23;84.42
42003;BME280;27693;50.506;30.832;2023-03-22T05:52:51;99756.18;;;9.29;83.73
42003;BME280;27693;50.506;30.832;2023-03-22T05:53:56;99756.32;;;9.26;83.33
42003;BME280;27693;50.506;30.832;2023-03-22T05:55:00;99756.00;;;9.34;83.04
42003;BME280;27693;50.506;30.832;2023-03-22T05:56:04;99749.73;;;9.39;82.67
42003;BME280;27693;50.506;30.832;2023-03-22T05:57:07;99761.56;;;9.47;82.33
42003;BME280;27693;50.506;30.832;2023-03-22T05:58:10;99757.66;;;9.57;82.00
42003;BME280;27693;50.506;30.832;2023-03-22T05:59:14;99751.75;;;9.53;81.78
42003;BME280;27693;50.506;30.832;2023-03-22T06:00:17;99756.47;;;9.43;81.56
42003;BME280;27693;50.506;30.832;2023-03-22T06:01:25;99768.55;;;9.45;81.67
42003;BME280;27693;50.506;30.832;2023-03-22T06:02:33;99759.86;;;9.46;81.73
42003;BME280;27693;50.506;30.832;2023-03-22T06:03:39;99770.25;;;9.46;81.69
42003;BME280;27693;50.506;30.832;2023-03-22T06:04:46;99773.75;;;9.45;81.73
42003;BME280;27693;50.506;30.832;2023-03-22T06:05:51;99769.53;;;9.42;81.64
42003;BME280;27693;50.506;30.832;2023-03-22T06:06:57;99777.25;;;9.43;82.13
42003;BME280;27693;50.506;30.832;2023-03-22T06:08:07;99775.30;;;9.49;81.86
42003;BME280;27693;50.506;30.832;2023-03-22T06:09:09;99778.80;;;9.48;81.75
42003;BME280;27693;50.506;30.832;2023-03-22T06:10:15;99789.88;;;9.53;81.68
42003;BME280;27693;50.506;30.832;2023-03-22T06:11:19;99789.08;;;9.51;81.53
42003;BME280;27693;50.506;30.832;2023-03-22T06:12:21;99778.44;;;9.57;81.27
42003;BME280;27693;50.506;30.832;2023-03-22T06:13:27;99786.63;;;9.68;81.11
42003;BME280;27693;50.506;30.832;2023-03-22T06:14:31;99781.58;;;9.65;80.79
42003;BME280;27693;50.506;30.832;2023-03-22T06:15:48;99792.22;;;9.59;80.70
42003;BME280;27693;50.506;30.832;2023-03-22T06:16:52;99790.02;;;9.70;80.92
42003;BME280;27693;50.506;30.832;2023-03-22T06:17:55;99787.81;;;9.82;80.51
42003;BME280;27693;50.506;30.832;2023-03-22T06:18:59;99794.70;;;10.03;80.13
42003;BME280;27693;50.506;30.832;2023-03-22T06:20:03;99792.45;;;9.96;79.49
42003;BME280;27693;50.506;30.832;2023-03-22T06:21:14;99795.86;;;9.75;79.57
42003;BME280;27693;50.506;30.832;2023-03-22T06:22:18;99803.26;;;9.64;80.46
42003;BME280;27693;50.506;30.832;2023-03-22T06:23:21;99801.89;;;9.55;80.93
42003;BME280;27693;50.506;30.832;2023-03-22T06:24:24;99802.97;;;9.50;81.73
42003;BME280;27693;50.506;30.832;2023-03-22T06:25:27;99795.10;;;9.73;81.60
42003;BME280;27693;50.506;30.832;2023-03-22T06:26:30;99796.28;;;9.87;80.74